Flight Track Log - Related Links

Times and Time Zones

All times are in EDT time to prevent confusion due to time zone crossing. See the JBU1083 flight status page for this flight to view local times or setup timezone preferences in your user account.


Time Position Orientation Groundspeed Altitude Reporting Facility
EDT Latitude Longitude Course Direction KTS MPH feet Rate Location/Type
Sat 08:47:58 PM 40.6500 -73.8500 207° Southwest 171 197 1,800  Level New York TRACON
Sat 08:48:58 PM 40.6000 -73.9000 217° Southwest 238 274 3,100 2,150 Climbing New York TRACON
Sat 08:49:58 PM 40.5333 -73.9500 210° Southwest 272 313 6,100 2,952 Climbing New York TRACON
Sat 08:50:00 PM 40.3415 -73.9939 210° Southwest  Level FlightAware Approximate
Sat 08:51:00 PM 40.2396 -74.0681 207° Southwest  Level FlightAware Approximate
Sat 08:51:04 PM 40.4667 -74.0167 217° Southwest 283 326 9,300  Level New York TRACON
Sat 08:52:00 PM 40.1358 -74.1373 207° Southwest  Level FlightAware Approximate
Sat 08:53:00 PM 40.0360 -74.2149 207° Southwest  Level FlightAware Approximate
Sat 08:53:01 PM 40.3119 -74.1189 207° Southwest 335 386 12,500  Level New York Center
Sat 08:54:01 PM 40.2233 -74.1581 199° South 364 419 14,600 1,889 Climbing New York Center
Sat 08:55:43 PM 40.0536 -74.2308 198° South 378 435 17,600 1,656 Climbing Washington Center
Sat 08:56:44 PM 39.9564 -74.2950 207° Southwest 389 448 19,100 1,550 Climbing Washington Center
Sat 08:57:43 PM 39.8678 -74.3831 217° Southwest 394 453 20,700 1,563 Climbing Washington Center
Sat 08:58:43 PM 39.7792 -74.4792 220° Southwest 416 479 22,200 1,400 Climbing Washington Center
Sat 08:59:43 PM 39.6989 -74.5856 226° Southwest 421 484 23,500 1,150 Climbing Washington Center
Sat 09:00:43 PM 39.6144 -74.6972 226° Southwest 426 490 24,500 793 Climbing Washington Center
Sat 09:01:44 PM 39.5256 -74.8167 226° Southwest 436 502 25,100 655 Climbing Washington Center
Sat 09:02:42 PM 39.4283 -74.9442 225° Southwest 442 509 25,800 650 Climbing Washington Center
Sat 09:03:44 PM 39.3331 -75.0631 224° Southwest 463 533 26,400 700 Climbing Washington Center
Sat 09:04:42 PM 39.2208 -75.1522 212° Southwest 476 548 27,200 756 Climbing Washington Center
Sat 09:05:43 PM 39.1025 -75.2253 206° Southwest 476 548 27,900 800 Climbing Washington Center
Sat 09:06:42 PM 38.9817 -75.3033 207° Southwest 481 554 28,800 1,000 Climbing Washington Center
Sat 09:07:43 PM 38.8631 -75.3731 205° Southwest 481 554 29,900 1,230 Climbing Washington Center
Sat 09:08:44 PM 38.7422 -75.4425 204° Southwest 481 554 31,300 1,140 Climbing Washington Center
Sat 09:09:44 PM 38.6256 -75.5119 205° Southwest 475 547 32,200 763 Climbing Washington Center
Sat 09:10:42 PM 38.5067 -75.5811 204° Southwest 470 541 32,800 750 Climbing Washington Center
Sat 09:11:44 PM 38.3919 -75.6500 205° Southwest 464 534 33,700 900 Climbing Washington Center
Sat 09:12:42 PM 38.2856 -75.7108 204° Southwest 464 534 34,600 800 Climbing Washington Center
Sat 09:13:44 PM 38.1708 -75.7767 204° Southwest 459 528 35,300 694 Climbing Washington Center
Sat 09:14:43 PM 38.0561 -75.8422 204° Southwest 464 534 36,000 353 Climbing Washington Center
Sat 09:15:43 PM 37.9433 -75.9078 205° Southwest 459 528 36,000  Level Washington Center
Sat 09:16:44 PM 37.8283 -75.9756 205° Southwest 459 528 36,000 -50 Level Washington Center
Sat 09:17:42 PM 37.7031 -76.0511 206° Southwest 459 528 35,900 -50 Descending Washington Center
Sat 09:18:44 PM 37.5858 -76.1186 205° Southwest 459 528 35,900 50 Level Washington Center
Sat 09:19:42 PM 37.4897 -76.1678 202° Southwest 459 528 36,000 51 Climbing Washington Center
Sat 09:20:42 PM 37.3622 -76.2372 203° Southwest 459 528 36,000 -49 Level Washington Center
Sat 09:21:44 PM 37.2492 -76.3014 204° Southwest 459 528 35,900  Descending Washington Center
Sat 09:22:42 PM 37.1342 -76.3683 205° Southwest 459 528 36,000 51 Climbing Washington Center
Sat 09:23:42 PM 37.0189 -76.4322 204° Southwest 459 528 36,000  Level Washington Center
Sat 09:24:43 PM 36.9058 -76.4958 204° Southwest 459 528 36,000  Level Washington Center
Sat 09:25:43 PM 36.7906 -76.5594 204° Southwest 459 528 36,000  Level Washington Center
Sat 09:26:42 PM 36.6794 -76.6278 206° Southwest 459 528 36,000  Level Washington Center
Sat 09:27:42 PM 36.5642 -76.6883 203° Southwest 459 528 36,000 -50 Level Washington Center
Sat 09:28:43 PM 36.4508 -76.7514 204° Southwest 454 522 35,900  Descending Washington Center
Sat 09:29:43 PM 36.3375 -76.8142 204° Southwest 454 522 36,000 50 Climbing Washington Center
Sat 09:30:44 PM 36.2242 -76.8742 203° Southwest 449 517 36,000  Level Washington Center
Sat 09:31:44 PM 36.1153 -76.9317 203° Southwest 443 510 36,000  Level Washington Center
Sat 09:32:42 PM 36.0017 -76.9939 204° Southwest 443 510 36,000  Level Washington Center
Sat 09:33:42 PM 35.8906 -77.0533 203° Southwest 443 510 36,000  Level Washington Center
Sat 09:34:42 PM 35.7814 -77.1128 204° Southwest 443 510 36,000  Level Washington Center
Sat 09:35:43 PM 35.6636 -77.1797 205° Southwest 429 494 36,000  Level Washington Center
Sat 09:36:43 PM 35.5500 -77.2361 202° Southwest 429 494 36,000  Level Washington Center
Sat 09:37:42 PM 35.4386 -77.3003 205° Southwest 435 501 36,000  Level Washington Center
Sat 09:38:44 PM 35.3294 -77.3564 203° Southwest 440 506 36,000  Level Washington Center
Sat 09:39:42 PM 35.2178 -77.4150 203° Southwest 440 506 36,000  Level Washington Center
Sat 09:40:42 PM 35.1083 -77.4758 204° Southwest 440 506 36,000  Level Washington Center
Sat 09:41:44 PM 34.9931 -77.5214 198° South 440 506 36,000  Level Washington Center
Sat 09:42:43 PM 34.8756 -77.5592 195° South 435 501 36,000  Level Washington Center
Sat 09:43:42 PM 34.7642 -77.6019 198° South 435 501 36,000  Level Washington Center
Sat 09:44:42 PM 34.6489 -77.6394 195° South 430 495 36,000 -50 Level Washington Center
Sat 09:45:42 PM 34.5356 -77.6794 196° South 430 495 35,900 -50 Descending Washington Center
Sat 09:46:43 PM 34.4181 -77.7169 195° South 430 495 35,900  Level Washington Center
Sat 09:47:43 PM 34.3025 -77.7542 195° South 430 495 35,900 50 Level Washington Center
Sat 09:48:44 PM 34.1786 -77.7986 197° South 444 511 36,000 50 Climbing Washington Center
Sat 09:49:43 PM 34.0631 -77.8356 195° South 444 511 36,000  Level Washington Center
Sat 09:51:00 PM 33.9244 -77.8797 195° South 426 490 36,000  Level Jacksonville Center
Sat 09:52:00 PM 33.8092 -77.9139 194° South 431 496 36,000  Level Jacksonville Center
Sat 09:53:00 PM 33.6939 -77.9553 197° South 431 496 36,000  Level Jacksonville Center
Sat 09:54:00 PM 33.5642 -78.0000 196° South 436 502 36,000  Level Jacksonville Center
Sat 09:55:00 PM 33.4486 -78.0361 195° South 436 502 36,000  Level Jacksonville Center
Sat 09:56:00 PM 33.3333 -78.0747 196° South 431 496 36,000  Level Jacksonville Center
Sat 09:57:00 PM 33.2158 -78.1108 194° South 431 496 36,000  Level Jacksonville Center
Sat 09:58:00 PM 33.0964 -78.1519 196° South 431 496 36,000  Level Jacksonville Center
Sat 09:59:00 PM 32.9806 -78.1853 194° South 431 496 36,000  Level Jacksonville Center
Sat 10:00:00 PM 32.8631 -78.2236 195° South 431 496 36,000  Level Jacksonville Center
Sat 10:01:00 PM 32.7456 -78.2642 196° South 431 496 36,000  Level Jacksonville Center
Sat 10:02:00 PM 32.6303 -78.3022 196° South 431 496 36,000  Level Jacksonville Center
Sat 10:03:00 PM 32.5147 -78.3378 195° South 431 496 36,000 -50 Level Jacksonville Center
Sat 10:04:00 PM 32.3969 -78.3731 194° South 431 496 35,900 -50 Descending Jacksonville Center
Sat 10:05:00 PM 32.2917 -78.4103 197° South 436 502 35,900  Level Jacksonville Center
Sat 10:06:00 PM 32.1742 -78.4478 195° South 436 502 35,900 50 Level Jacksonville Center
Sat 10:07:00 PM 32.0567 -78.4878 196° South 436 502 36,000 50 Climbing Jacksonville Center
Sat 10:08:00 PM 31.9389 -78.5253 195° South 436 502 36,000 -50 Level Jacksonville Center
Sat 10:09:00 PM 31.8233 -78.5625 195° South 431 496 35,900 -50 Descending Jacksonville Center
Sat 10:10:00 PM 31.7075 -78.5950 193° South 436 502 35,900 50 Level Jacksonville Center
Sat 10:11:00 PM 31.5897 -78.6344 196° South 436 502 36,000 50 Climbing Jacksonville Center
Sat 10:12:00 PM 31.4719 -78.6714 195° South 436 502 36,000  Level Jacksonville Center
Sat 10:13:00 PM 31.3542 -78.7061 194° South 436 502 36,000 -50 Level Jacksonville Center
Sat 10:14:00 PM 31.2364 -78.7453 196° South 436 502 35,900 -50 Descending Jacksonville Center
Sat 10:15:00 PM 31.1208 -78.7794 194° South 436 502 35,900 50 Level Jacksonville Center
Sat 10:16:00 PM 30.9986 -78.8164 195° South 436 502 36,000 50 Climbing Jacksonville Center
Sat 10:17:00 PM 30.8767 -78.8531 194° South 436 502 36,000  Level Jacksonville Center
Sat 10:18:00 PM 30.7694 -78.8914 197° South 436 502 36,000  Level Jacksonville Center
Sat 10:20:08 PM 30.5086 -78.9692 194° South 454 522 36,000  Level Miami Center
Sat 10:21:09 PM 30.3892 -79.0075 195° South 449 517 36,000 -50 Level Miami Center
Sat 10:22:09 PM 30.2758 -79.0581 201° Southwest 449 517 35,900  Descending Miami Center
Sat 10:23:09 PM 30.1542 -79.1083 200° South 449 517 36,000 51 Climbing Miami Center
Sat 10:24:07 PM 30.0431 -79.1564 201° Southwest 444 511 36,000  Level Miami Center
Sat 10:25:08 PM 29.9358 -79.2092 203° Southwest 435 501 36,000  Level Miami Center
Sat 10:26:08 PM 29.8244 -79.2569 200° South 429 494 36,000  Level Miami Center
Sat 10:27:09 PM 29.7111 -79.3044 200° South 434 499 36,000  Level Miami Center
Sat 10:28:06 PM 29.6058 -79.3619 205° Southwest 434 499 36,000 -51 Level Miami Center
Sat 10:29:07 PM 29.4883 -79.3997 196° South 434 499 35,900 -1,041 Descending Miami Center
Sat 10:30:07 PM 29.3789 -79.4494 202° Southwest 434 499 33,900 -2,083 Descending Miami Center
Sat 10:31:08 PM 29.2736 -79.5064 205° Southwest 428 493 31,700 -2,164 Descending Miami Center
Sat 10:32:09 PM 29.1661 -79.5706 208° Southwest 428 493 29,500 -2,186 Descending Miami Center
Sat 10:33:06 PM 29.0847 -79.6706 227° Southwest 428 493 27,400 -2,100 Descending Miami Center
Sat 10:34:09 PM 29.0261 -79.7878 240° Southwest 422 486 25,300 -2,100 Descending Miami Center
Sat 10:35:06 PM 28.9903 -79.9078 251° West 411 473 23,200 -2,136 Descending Miami Center
Sat 10:36:07 PM 28.9542 -80.0300 251° West 411 473 21,100 -2,016 Descending Miami Center
Sat 10:37:08 PM 28.9183 -80.1428 250° West 399 459 19,100 -1,916 Descending Miami Center
Sat 10:38:06 PM 28.8822 -80.2533 250° West 388 447 17,300 -1,947 Descending Miami Center
Sat 10:39:39 PM 28.8333 -80.4167 251° West 348 400 14,200 -1,294 Descending Orlando TRACON
Sat 10:40:39 PM 28.8167 -80.5333 261° West 364 419 14,000 -350 Descending Orlando TRACON
Sat 10:41:39 PM 28.8000 -80.6500 261° West 363 418 13,500 -1,300 Descending Orlando TRACON
Sat 10:42:39 PM 28.7833 -80.7500 259° West 355 409 11,400 -1,600 Descending Orlando TRACON
Sat 10:43:39 PM 28.7667 -80.8667 261° West 333 383 10,300 -1,140 Descending Orlando TRACON
Sat 10:44:40 PM 28.7500 -80.9500 257° West 297 342 9,100 -1,150 Descending Orlando TRACON
Sat 10:45:39 PM 28.7333 -81.0500 259° West 296 341 8,000 -952 Descending Orlando TRACON
Sat 10:46:46 PM 28.7167 -81.1333 257° West 288 331 7,100 -992 Descending Orlando TRACON
Sat 10:47:46 PM 28.6667 -81.2000 229° Southwest 277 319 5,900 -1,250 Descending Orlando TRACON
Sat 10:48:46 PM 28.6167 -81.2667 229° Southwest 234 269 4,600 -1,400 Descending Orlando TRACON
Sat 10:49:46 PM 28.5833 -81.3167 233° Southwest 195 224 3,100 -1,048 Descending Orlando TRACON
Sat 10:50:52 PM 28.5333 -81.3333 196° South 152 175 2,400 -1,000 Descending Orlando TRACON
Sat 10:51:52 PM 28.5000 -81.3333 180° South 150 173 1,000 -1,050 Descending Orlando TRACON
Sat 10:52:52 PM 28.4500 -81.3333 180° South 138 159 300 -700 Descending Orlando TRACON

Login

Don't have an account? Register now (free) for customized features, flight alerts, and more!